createdAt,value
2023-01-01T00:00:15.696Z,11.913220
2023-01-01T00:05:15.680Z,11.738687
2023-01-01T00:10:16.436Z,11.286140
2023-01-01T00:15:17.319Z,8.886298
2023-01-01T00:20:16.179Z,5.039177
2023-01-01T00:25:16.579Z,2.441187
2023-01-01T00:30:15.836Z,0.709969
2023-01-01T00:35:16.852Z,0.077121
2023-01-01T00:40:16.773Z,0.006795
2023-01-01T00:45:23.106Z,0.000000
2023-01-01T00:50:16.732Z,0.000000
2023-01-01T00:55:17.670Z,0.000000
2023-01-01T01:00:17.610Z,0.000000
2023-01-01T01:05:15.907Z,0.000000
2023-01-01T01:10:17.556Z,0.000000
2023-01-01T01:15:16.742Z,0.000000
2023-01-01T01:20:16.517Z,0.000000
2023-01-01T01:25:16.970Z,0.000000
2023-01-01T01:30:17.438Z,0.000000
2023-01-01T01:35:16.356Z,0.000000
2023-01-01T01:40:16.308Z,0.000000
2023-01-01T01:45:17.279Z,0.000000
2023-01-01T01:50:17.142Z,0.000000
2023-01-01T01:55:17.205Z,0.000000
2023-01-01T02:00:16.007Z,0.000000
2023-01-01T02:05:16.815Z,0.002194
2023-01-01T02:10:15.815Z,0.000000
2023-01-01T02:15:16.031Z,0.000000
2023-01-01T02:20:18.706Z,0.000000
2023-01-01T02:25:16.231Z,0.000000
2023-01-01T02:30:16.283Z,0.000000
2023-01-01T02:35:17.121Z,0.000000
2023-01-01T02:40:18.238Z,0.000000
2023-01-01T02:45:17.704Z,0.000000
2023-01-01T02:50:22.035Z,0.000000
2023-01-01T02:55:15.891Z,0.000000
2023-01-01T03:00:17.053Z,0.000000
2023-01-01T03:05:18.460Z,0.000000
2023-01-01T03:10:22.752Z,0.000000
2023-01-01T03:15:15.963Z,0.000000
2023-01-01T03:20:15.852Z,0.000000
2023-01-01T03:25:16.721Z,0.000000
2023-01-01T03:30:20.779Z,0.000000
2023-01-01T03:35:17.097Z,0.000000
2023-01-01T03:40:16.437Z,0.000000
2023-01-01T03:45:19.113Z,0.000000
2023-01-01T03:50:18.752Z,0.000000
2023-01-01T03:55:18.038Z,0.000000
2023-01-01T04:00:18.380Z,0.000000
2023-01-01T04:05:17.182Z,0.000000
2023-01-01T04:10:17.752Z,0.000000
2023-01-01T04:15:16.983Z,0.000000
2023-01-01T04:20:17.019Z,0.000000
2023-01-01T04:25:17.865Z,0.000000
2023-01-01T04:30:21.295Z,0.000000
2023-01-01T04:35:15.750Z,0.000000
2023-01-01T04:40:16.814Z,0.000000
2023-01-01T04:45:18.822Z,0.000000
2023-01-01T04:50:16.269Z,0.000000
2023-01-01T04:55:18.050Z,0.000000
2023-01-01T05:00:17.875Z,0.000000
2023-01-01T05:05:18.582Z,0.000000
2023-01-01T05:10:17.353Z,0.000000
2023-01-01T05:15:15.959Z,0.000000
2023-01-01T05:20:16.902Z,0.000000
2023-01-01T05:25:16.459Z,0.000000
2023-01-01T05:30:17.353Z,0.000000
2023-01-01T05:35:19.301Z,0.000000
2023-01-01T05:40:20.746Z,0.000000
2023-01-01T05:45:18.798Z,0.000000
2023-01-01T05:50:15.616Z,0.000000
2023-01-01T05:55:16.350Z,0.000000
2023-01-01T06:00:16.956Z,0.000000
2023-01-01T06:05:17.881Z,0.000000
2023-01-01T06:10:17.010Z,0.000000
2023-01-01T06:15:15.489Z,0.000000
2023-01-01T06:20:18.229Z,0.000000
2023-01-01T06:25:16.727Z,0.000000
2023-01-01T06:30:15.886Z,0.000000
2023-01-01T06:35:16.854Z,0.000000
2023-01-01T06:40:16.860Z,0.000000
2023-01-01T06:45:16.418Z,0.000000
2023-01-01T06:50:26.754Z,0.000000
2023-01-01T06:55:15.543Z,0.000000
2023-01-01T07:00:18.480Z,0.000000
2023-01-01T07:05:19.713Z,0.000000
2023-01-01T07:10:16.189Z,0.000000
2023-01-01T07:15:16.096Z,0.000000
2023-01-01T07:20:19.779Z,0.000000
2023-01-01T07:25:15.984Z,0.002260
2023-01-01T07:30:16.579Z,0.000000
2023-01-01T07:35:18.008Z,0.000000
2023-01-01T07:40:17.165Z,0.000000
2023-01-01T07:45:16.831Z,0.000000
2023-01-01T07:50:17.000Z,0.000000
2023-01-01T07:55:16.502Z,0.000000
2023-01-01T08:00:15.778Z,0.000000
2023-01-01T08:05:26.038Z,0.000000
2023-01-01T08:10:16.276Z,0.000000
2023-01-01T08:15:16.590Z,0.000000
2023-01-01T08:20:16.492Z,0.000000
2023-01-01T08:25:17.230Z,0.000000
2023-01-01T08:30:17.663Z,0.000000
2023-01-01T08:35:17.514Z,0.000000
2023-01-01T08:40:16.609Z,0.000000
2023-01-01T08:45:16.020Z,0.000000
2023-01-01T08:50:22.628Z,0.000000
2023-01-01T08:55:17.187Z,0.000000
2023-01-01T09:00:17.448Z,0.000000
2023-01-01T09:05:16.488Z,0.000000
2023-01-01T09:10:16.915Z,0.000000
2023-01-01T09:15:18.195Z,0.000000
2023-01-01T09:20:18.489Z,0.000000
2023-01-01T09:25:16.991Z,0.000000
2023-01-01T09:30:17.545Z,0.000000
2023-01-01T09:35:18.228Z,0.000000
2023-01-01T09:40:16.437Z,0.000000
2023-01-01T09:45:16.011Z,0.000000
2023-01-01T09:50:16.554Z,0.000000
2023-01-01T09:55:16.574Z,0.000000
2023-01-01T10:00:18.030Z,0.000000
2023-01-01T10:05:18.033Z,0.000000
2023-01-01T10:10:15.911Z,0.000000
2023-01-01T10:15:17.393Z,0.000000
2023-01-01T10:20:15.734Z,0.000000
2023-01-01T10:25:17.842Z,0.000000
2023-01-01T10:30:17.167Z,0.000000
2023-01-01T10:35:16.136Z,0.000000
2023-01-01T10:40:16.860Z,0.000000
2023-01-01T10:45:16.311Z,0.000000
2023-01-01T10:50:16.559Z,0.000000
2023-01-01T10:55:17.565Z,0.000000
2023-01-01T11:00:21.087Z,0.000000
2023-01-01T11:05:21.651Z,0.000000
2023-01-01T11:10:17.750Z,0.000000
2023-01-01T11:15:17.008Z,0.000000
2023-01-01T11:20:16.919Z,0.000000
2023-01-01T11:25:16.003Z,0.000000
2023-01-01T11:30:16.544Z,0.000000
2023-01-01T11:35:16.978Z,0.000000
2023-01-01T11:40:17.011Z,0.000000
2023-01-01T11:45:18.749Z,0.000000
2023-01-01T11:50:17.296Z,0.000000
2023-01-01T11:55:18.874Z,0.000000
2023-01-01T12:00:16.383Z,0.000000
2023-01-01T12:05:18.103Z,0.000000
2023-01-01T12:10:18.786Z,0.000000
2023-01-01T12:15:18.483Z,0.000000
2023-01-01T12:20:16.817Z,0.000000
2023-01-01T12:25:17.627Z,0.000000
2023-01-01T12:30:21.212Z,0.000000
2023-01-01T12:35:17.255Z,0.000000
2023-01-01T12:40:21.158Z,0.000000
2023-01-01T12:45:17.187Z,0.000000
2023-01-01T12:50:17.616Z,0.000000
2023-01-01T12:55:16.921Z,0.000000
2023-01-01T13:00:21.911Z,0.000000
2023-01-01T13:05:17.234Z,0.000000
2023-01-01T13:10:18.306Z,0.000000
2023-01-01T13:15:15.961Z,0.000000
2023-01-01T13:20:20.692Z,0.000000
2023-01-01T13:25:16.939Z,0.000000
2023-01-01T13:30:18.350Z,0.000000
2023-01-01T13:35:21.396Z,0.002214
2023-01-01T13:40:15.996Z,0.000000
2023-01-01T13:45:36.560Z,0.000000
2023-01-01T13:50:15.681Z,0.000000
2023-01-01T13:55:18.373Z,0.000000
2023-01-01T14:00:16.662Z,0.000000
2023-01-01T14:05:17.407Z,0.000000
2023-01-01T14:10:16.444Z,0.000000
2023-01-01T14:15:17.780Z,0.000000
2023-01-01T14:20:17.966Z,0.000000
2023-01-01T14:25:17.972Z,0.000000
2023-01-01T14:30:18.090Z,0.000000
2023-01-01T14:35:16.852Z,0.000000
2023-01-01T14:40:22.401Z,0.000000
2023-01-01T14:45:17.548Z,0.000000
2023-01-01T14:50:18.449Z,0.000000
2023-01-01T14:55:15.975Z,0.000000
2023-01-01T15:00:16.785Z,0.000000
2023-01-01T15:05:21.898Z,0.000000
2023-01-01T15:10:16.485Z,0.000000
2023-01-01T15:15:16.790Z,0.000000
2023-01-01T15:20:16.559Z,0.000000
2023-01-01T15:25:16.830Z,0.000000
2023-01-01T15:30:18.315Z,0.000000
2023-01-01T15:35:17.455Z,0.000000
2023-01-01T15:40:16.803Z,0.000000
2023-01-01T15:45:16.470Z,0.000000
2023-01-01T15:50:17.328Z,0.004468
2023-01-01T15:55:17.728Z,0.016403
2023-01-01T16:00:16.628Z,0.108715
2023-01-01T16:05:16.566Z,0.486440
2023-01-01T16:10:17.410Z,1.709241
2023-01-01T16:15:16.651Z,3.581739
2023-01-01T16:20:16.132Z,6.081894
2023-01-01T16:25:16.577Z,7.839412
2023-01-01T16:30:17.390Z,10.669904
2023-01-01T16:35:16.990Z,11.429263
2023-01-01T16:40:16.003Z,10.596373
2023-01-01T16:45:16.634Z,9.639354
2023-01-01T16:50:17.065Z,12.187665
2023-01-01T16:55:17.497Z,15.918881
2023-01-01T17:00:21.229Z,20.478978
2023-01-01T17:05:16.141Z,25.254223
2023-01-01T17:10:17.643Z,26.772026
2023-01-01T17:15:17.361Z,26.895124
2023-01-01T17:20:16.620Z,28.058028
2023-01-01T17:25:16.931Z,28.096616
2023-01-01T17:30:16.765Z,27.298269
2023-01-01T17:35:16.974Z,29.306944
2023-01-01T17:40:17.408Z,31.643149
2023-01-01T17:45:22.753Z,30.962235
2023-01-01T17:50:16.100Z,30.413654
2023-01-01T17:55:15.973Z,31.086715
2023-01-01T18:00:15.651Z,30.784269
2023-01-01T18:05:15.866Z,31.504539
2023-01-01T18:10:17.532Z,40.252286
2023-01-01T18:15:17.696Z,51.401935
2023-01-01T18:20:16.259Z,43.155615
2023-01-01T18:25:15.999Z,39.904312
2023-01-01T18:30:17.079Z,48.884336
2023-01-01T18:35:16.764Z,61.341858
2023-01-01T18:40:16.630Z,70.811225
2023-01-01T18:45:16.918Z,80.069445
2023-01-01T18:50:16.237Z,82.348560
2023-01-01T18:55:17.173Z,88.778634
2023-01-01T19:00:18.267Z,90.619803
2023-01-01T19:05:16.092Z,89.855057
2023-01-01T19:10:16.660Z,90.319638
2023-01-01T19:15:17.021Z,114.712554
2023-01-01T19:20:16.962Z,137.335090
2023-01-01T19:25:16.455Z,143.704688
2023-01-01T19:30:17.045Z,135.293136
2023-01-01T19:35:16.849Z,99.143601
2023-01-01T19:40:16.244Z,104.418946
2023-01-01T19:45:16.530Z,170.099038
2023-01-01T19:50:18.434Z,164.372462
2023-01-01T19:55:16.211Z,171.686671
2023-01-01T20:00:16.532Z,183.896679
2023-01-01T20:05:17.000Z,226.824371
2023-01-01T20:10:15.740Z,280.193757
2023-01-01T20:15:16.482Z,279.462477
2023-01-01T20:20:15.681Z,346.188555
2023-01-01T20:25:16.912Z,366.921725
2023-01-01T20:30:16.551Z,324.129414
2023-01-01T20:35:16.365Z,318.114828
2023-01-01T20:40:15.648Z,344.951222
2023-01-01T20:45:16.440Z,344.457903
2023-01-01T20:50:16.904Z,360.266872
2023-01-01T20:55:15.627Z,359.436821
2023-01-01T21:00:17.033Z,298.213198
2023-01-01T21:05:16.677Z,277.634694
2023-01-01T21:10:15.859Z,90.633273
2023-01-01T21:15:15.964Z,30.370634
2023-01-01T21:20:16.437Z,30.803612
2023-01-01T21:25:49.785Z,42.034119
2023-01-01T21:30:18.294Z,50.989346
2023-01-01T21:35:17.371Z,57.107999
2023-01-01T21:40:16.556Z,68.111364
2023-01-01T21:45:15.536Z,73.976058
2023-01-01T21:50:16.134Z,75.388241
2023-01-01T21:55:15.951Z,78.483561
2023-01-01T22:00:16.228Z,81.203783
2023-01-01T22:05:20.944Z,85.733735
2023-01-01T22:10:16.488Z,84.968829
2023-01-01T22:15:16.687Z,86.071846
2023-01-01T22:20:16.608Z,78.563526
2023-01-01T22:25:17.201Z,70.722294
2023-01-01T22:30:16.709Z,66.810993
2023-01-01T22:35:17.759Z,59.121559
2023-01-01T22:40:16.699Z,54.137034
2023-01-01T22:45:17.190Z,51.668033
2023-01-01T22:50:16.501Z,56.325876
2023-01-01T22:55:19.490Z,62.077373
2023-01-01T23:00:16.001Z,58.435828
2023-01-01T23:05:17.327Z,54.732129
2023-01-01T23:10:17.766Z,54.963867
2023-01-01T23:15:17.174Z,49.743607
2023-01-01T23:20:16.567Z,48.184212
2023-01-01T23:25:18.211Z,56.207677
2023-01-01T23:30:17.966Z,53.442013
2023-01-01T23:35:17.483Z,34.797224
2023-01-01T23:40:16.930Z,25.521352
2023-01-01T23:45:16.027Z,20.727256
2023-01-01T23:50:16.578Z,16.720494
2023-01-01T23:55:15.746Z,15.302040
